Amity, PA

6:08 PM EDT on May 03, 2015 (GMT -0400)
South Franklin, Alamae Lakes | | Change Station
CLOSE
Current Station
Personal Weather Station
Location: Washington, PA
Elevation: 1260 ft
Nearby Weather Stations

Elev 1260 ft 40.09 °N, 80.25 °W | Updated 3 minutes ago

Mostly Cloudy
Mostly Cloudy
74.9 °F
Feels Like 77 °F
N
8.0
Wind Variable Wind from WSW
Gusts 10.0 mph

Today
High -- | Low -- °F
--% Chance of Precip.
Yesterday
High -- | Low -- °F
Precip. -- in
6:18 AM 8:17 PM
Full, 100% visible
Pressure 30.12 in
Visibility 10.0 miles
Clouds Mostly Cloudy 10000 ft
Heat Index 77 °F
Dew Point 46 °F
Humidity 36%
Rainfall 0.00 in
Snow Depth Not available.
UV 2 out of 12
Pollen 10.70 out of 12
Air Quality Not available.
Flu Activity Sporadic
METAR KAFJ 032135Z AUTO 25009KT 10SM BKN100 24/07 A3012 RMK AO1

More Conditions Fewer Conditions

Pressure 30.12 in
Visibility 10.0 miles
Clouds Mostly Cloudy 10000 ft
Heat Index 77 °F
Dew Point 46 °F
Humidity 36%
Rainfall 0.00 in
Snow Depth Not available.
UV 2 out of 12
Pollen 10.70 out of 12
Air Quality Not available.
Flu Activity Sporadic
METAR KAFJ 032135Z AUTO 25009KT 10SM BKN100 24/07 A3012 RMK AO1

More Conditions Fewer Conditions

Nepal has a long way to go to dig out and rebuild from a devastating earthquake. We have teamed up with several charities and organizations to make contributing to the relief effort as easy as possible.
How you can help: Portlight Strategies | Red Cross

10-Day Weather Forecast

Almanac

Astronomy

May. 03, 2015 Rise Set
Actual Time
Civil Twilight
Nautical Twilight
Astronomical Twilight
Moon
Length of Visible Light
Length of Day
Tomorrow will be .
, % of the Moon is Illuminated

Today's Extremes

State Highs State Lows

Community

WunderPhotos

Upload Photos

1,818,382 photos uploaded!

WunderBlogs® & News

Nearby

Air Quality

  Air Quality AQ Index Pollutant
Not available.

Snow Depth

Station Depth Elevation

Earthquake Activity

City Distance Mag. Time & Date
Minimum magnitude displayed is 2.5.

Coastal Water Temperatures

Place Temperature

Stations

Nearby Weather Stations

Station Location Temp. Windchill Dew Point Humidity Wind Precip. Elev Updated Type